Погода Кудахина неделю

Калифорния, США

01 - 07 сентября
  • 01сентября
    Сегодня
    +18°
    +28°
    Ясно и безоблачно
    ВремяПогодаТемператураВлажностьДавлениеВетер, м/сВероятность осадков
    02:00Ясно и безоблачно+20°C80 %758 мм0.6 м/с2 %
    05:00Ясно и безоблачно+18°C87 %757 мм0.1 м/с2 %
    08:00Ясно и безоблачно+20°C80 %758 мм0.3 м/с2 %
    11:00Ясно и безоблачно+25°C42 %758 мм0.8 м/с2 %
    14:00Ясно и безоблачно+28°C37 %758 мм3.0 м/с2 %
    17:00Ясно и безоблачно+26°C38 %757 мм3.2 м/с2 %
    20:00Ясно и безоблачно+22°C61 %757 мм2.3 м/с2 %
    23:00Ясно и безоблачно+20°C72 %758 мм1.0 м/с2 %
  • 02сентября
    Среда
    +19°
    +30°
    Ясно и безоблачно
    ВремяПогодаТемператураВлажностьДавлениеВетер, м/сВероятность осадков
    02:00Ясно и безоблачно+20°C77 %758 мм0.9 м/с2 %
    05:00Ясно и безоблачно+19°C81 %758 мм0.7 м/с2 %
    08:00Ясно и безоблачно+20°C75 %759 мм0.6 м/с2 %
    11:00Ясно и безоблачно+25°C46 %759 мм1.1 м/с2 %
    14:00Ясно и безоблачно+29°C35 %758 мм2.3 м/с2 %
    17:00Ясно и безоблачно+28°C37 %756 мм2.7 м/с2 %
    20:00Ясно и безоблачно+23°C48 %757 мм1.6 м/с2 %
    23:00Ясно и безоблачно+22°C63 %758 мм1.1 м/с2 %
  • 03сентября
    Четверг
    +19°
    +30°
    Ясно и безоблачно
    ВремяПогодаТемператураВлажностьДавлениеВетер, м/сВероятность осадков
    02:00Ясно и безоблачно+21°C75 %757 мм0.8 м/с2 %
    05:00Ясно и безоблачно+20°C80 %757 мм0.9 м/с2 %
    08:00Практически безоблачно+21°C80 %757 мм1.4 м/с2 %
    11:00Ясно и безоблачно+25°C48 %757 мм1.5 м/с2 %
    14:00Ясно и безоблачно+29°C35 %756 мм2.5 м/с2 %
    17:00Ясно и безоблачно+27°C54 %755 мм3.0 м/с2 %
    20:00Ясно и безоблачно+23°C68 %755 мм1.9 м/с2 %
    23:00Ясно и безоблачно+21°C76 %756 мм0.9 м/с2 %
  • 04сентября
    Пятница
    +19°
    +30°
    Ясно и безоблачно
    ВремяПогодаТемператураВлажностьДавлениеВетер, м/сВероятность осадков
    02:00Ясно и безоблачно+21°C80 %756 мм0.3 м/с2 %
    05:00Ясно и безоблачно+20°C86 %756 мм1.3 м/с2 %
    08:00Ясно и безоблачно+21°C79 %756 мм0.5 м/с2 %
    11:00Ясно и безоблачно+26°C48 %757 мм1.7 м/с2 %
    14:00Ясно и безоблачно+29°C32 %755 мм2.1 м/с2 %
    17:00Ясно и безоблачно+28°C40 %755 мм2.7 м/с2 %
    20:00Ясно и безоблачно+23°C59 %755 мм1.7 м/с2 %
    23:00Ясно и безоблачно+22°C67 %756 мм1.1 м/с2 %
  • 05сентября
    Суббота
    +22°
    +32°
    Ясно и безоблачно
    ВремяПогодаТемператураВлажностьДавлениеВетер, м/сВероятность осадков
    02:00Ясно и безоблачно+21°C74 %756 мм0.9 м/с2 %
    05:00Ясно и безоблачно+20°C82 %756 мм0.3 м/с5 %
    08:00Ясно и безоблачно+21°C71 %757 мм0.4 м/с12 %
    11:00Ясно и безоблачно+27°C26 %757 мм0.5 м/с14 %
    14:00Ясно и безоблачно+32°C17 %756 мм2.1 м/с20 %
    17:00Ясно и безоблачно+30°C27 %755 мм3.0 м/с17 %
    20:00Ясно и безоблачно+25°C41 %756 мм2.0 м/с18 %
    23:00Ясно и безоблачно+23°C50 %757 мм0.9 м/с20 %
  • 06сентября
    Воскресенье
    +19°
    +31°
    Ясно и безоблачно
    ВремяПогодаТемператураВлажностьДавлениеВетер, м/сВероятность осадков
    05:00Ясно и безоблачно+23°C60 %756 мм0.1 м/с31 %
    11:00Ясно и безоблачно+29°C31 %757 мм0.8 м/с37 %
    17:00Ясно и безоблачно+29°C34 %755 мм3.3 м/с32 %
    23:00Ясно и безоблачно+22°C65 %756 мм1.7 м/с24 %
  • 07сентября
    Понедельник
    +18°
    +32°
    Ясно и безоблачно
    ВремяПогодаТемператураВлажностьДавлениеВетер, м/сВероятность осадков
    05:00Ясно и безоблачно+20°C79 %756 мм1.5 м/с18 %
    11:00Ясно и безоблачно+28°C46 %757 мм2.3 м/с27 %
    17:00Ясно и безоблачно+28°C40 %755 мм3.9 м/с21 %
    23:00Ясно и безоблачно+21°C73 %756 мм1.7 м/с14 %
Мы используем cookies
Соглашаюсь